Crawfordsville, IN (47934)

6:18 PM EDT on July 23, 2014 (GMT -0400)
Wabash College Campus (KINCRAWF3) Elev 778 ft | 40.04 °N, 86.91 °W | Change Station

Current weather conditions updated 6 seconds ago

Partly Cloudy
Partly Cloudy
79.3 °F
Feels Like 80 °F
N
6.9
Wind Variable Wind from North
Gusts 11.4 mph

Tomorrow is forecast to be Cooler than today.

Today
High -- | Low -- °F
--% Chance of Precip.
Yesterday
High -- | Low -- °F
Precip. -- in
6:37 AM 9:09 PM
Waning Crescent, 8% visible
Pressure 30.04 in
Visibility 10.0 miles
Clouds Clear
Heat Index 80 °F
Dew Point 60 °F
Humidity 51%
Rainfall 0.00 in
Snow Depth Not available.
UV 4 out of 12
Pollen 6.10 out of 12
Air Quality Not available.
Flu Activity Not available.
METAR KLAF 232154Z 36015G22KT 10SM CLR 23/13 A3005 RMK AO2 SLP172 T02330133

More Conditions Fewer Conditions

Pressure 30.04 in
Visibility 10.0 miles
Clouds Clear
Heat Index 80 °F
Dew Point 60 °F
Humidity 51%
Rainfall 0.00 in
Snow Depth Not available.
UV 4 out of 12
Pollen 6.10 out of 12
Air Quality Not available.
Flu Activity Not available.
METAR KLAF 232154Z 36015G22KT 10SM CLR 23/13 A3005 RMK AO2 SLP172 T02330133

More Conditions Fewer Conditions

10-Day Weather Forecast

Almanac

Astronomy

Jul. 23, 2014 Rise Set
Actual Time 6:37 AM EDT 9:09 PM EDT
Civil Twilight 6:06 AM EDT 9:41 PM EDT
Nautical Twilight 5:27 AM EDT 10:19 PM EDT
Astronomical Twilight 4:44 AM EDT 11:02 PM EDT
Moon 3:56 AM EDT 6:38 PM EDT
Length of Visible Light 15h 34m
Length of Day
14h 32m
Tomorrow will be 1m 43s shorter.
Waning Crescent, 8% of the Moon is Illuminated
Today
Waning Crescent
Jul 26
New
Aug 3
First Quarter
Aug 10
Full
Aug 17
Last Quarter

Today's Extremes

State Highs State Lows

Community

WunderPhotos

Upload Photos

1,736,802 photos uploaded!

Nearby

Snow Depth

Station Depth Elevation
No new snow has been reported.

Earthquake Activity

City Distance Mag. Time & Date
No recent earthquake activity has been reported nearby.
Minimum magnitude displayed is 2.5.

Coastal Water Temperatures

Place Temperature
No Stations Reporting

Nearby Weather Stations

Station Location Temp. Heat Index Dew Point Humidity Wind Precip. Elev Updated Type
Wabash College Campus, Crawfordsville, IN 79.3 °F 80 °F 60 °F 51% North  at  6.9 mph 0.00 in / hr 778 ft 6:18 PM EDT Rapid Fire
116 S Walnut St, Ladoga, IN 77.2 °F 79 °F 70 °F 78% WSW  at  2.0 mph 0.00 in / hr 833 ft 4:10 PM EDT Normal
Romney, IN 73.8 °F 76 °F 61 °F 65% NE  at  6.0 mph - / hr 738 ft 6:07 PM EDT Normal
Ash Street, Jamestown, IN 74.4 °F 76 °F 64 °F 69% West  at  12.0 mph 0.00 in / hr 974 ft 6:10 PM EDT Normal
Bainbridge, Bainbridge, IN 76.3 °F 78 °F 67 °F 74% SSE  at  1.8 mph 0.00 in / hr 872 ft 5:14 PM CDT Normal
Greencastle, IN 74.7 °F 75 °F 68 °F 79% WNW  at  1.0 mph - / hr 814 ft 6:11 PM EDT Normal
Rockville, IN 78.2 °F 80 °F 68 °F 71% NE  at  0.0 mph 0.00 in / hr 702 ft 6:18 PM EDT Rapid Fire

Show More Stations Show Fewer Stations